Terminal Aerodrome Forecast
Issued by NWS Cleveland, OH

Home | Current Version | Previous Version | Graphics & Text | Print | Product List | Glossary On
Versions: 1 2 3 4 5 6 7 8 9 10 11 12 13 14 15 16 17 18 19 20 21 22 23 24 25 26
616
FTUS41 KCLE 130548
TAFERI
TAF
KERI 130548Z 1306/1406 29015G25KT P6SM VCSH BKN025 OVC035
     FM131000 29015G25KT 5SM -SHSN SCT015 OVC025
      TEMPO 1310/1314 3/4SM -SHSN SCT008 OVC015
     FM131500 28015KT P6SM OVC015
     FM132000 25011KT 3SM -SN OVC015
      TEMPO 1402/1406 1/2SM SN OVC006=

USA.gov is the U.S. government's official web portal to all federal, state and local government web resources and services.